KFLO

Florence Regional Airport

Florence, South Carolina, USA
KFLO 191720Z 1918/2018 03003KT P6SM SCT035 FM192200 24004KT P6SM BKN250 FM201300 25008KT P6SM BKN050
Issued Valid From Valid To
Nov-19 @ 17:20 UTC
(5 hours ago)
Nov-19 @ 18:00 UTC
(4 hours ago)
Nov-20 @ 18:00 UTC
(in 20 hours)
Expired Click to View Nov-19 @ 18:00 to Nov-19 @ 22:00
KFLO 191720Z 1918/2018 03003KT P6SM SCT035
Wind Visibility Clouds
30° at 3 knots Greater than 6 miles
  • Scattered at 3,500' AGL
From Nov-19 @ 22:00 to Nov-20 @ 13:00
FM192200 24004KT P6SM BKN250
Wind Visibility Clouds
240° at 4 knots Greater than 6 miles
  • Broken at 25,000' AGL
From Nov-20 @ 13:00 to Nov-20 @ 18:00
FM201300 25008KT P6SM BKN050
Wind Visibility Clouds
250° at 8 knots Greater than 6 miles
  • Broken at 5,000' AGL
KFLO 191720Z 1918/2018 03003KT P6SM SCT035 FM192200 24004KT P6SM BKN250 FM201300 25008KT P6SM BKN050
Issued Nov-19 @ 17:20 UTC
(5 hours ago)
Valid From Nov-19 @ 18:00 UTC
(4 hours ago)
Valid To Nov-20 @ 18:00 UTC
(in 20 hours)
Nov-19 @ 18:00 - Nov-19 @ 22:00
Wind Visibility
30° at 3 knots Greater than 6 miles
Clouds
  • Scattered at 3,500' AGL
From Nov-19 @ 22:00 - Nov-20 @ 13:00
Wind Visibility
240° at 4 knots Greater than 6 miles
Clouds
  • Broken at 25,000' AGL
From Nov-20 @ 13:00 - Nov-20 @ 18:00
Wind Visibility
250° at 8 knots Greater than 6 miles
Clouds
  • Broken at 5,000' AGL